createdAt,value
2023-04-16T00:00:28.449Z,10.48
2023-04-16T00:05:30.769Z,10.57
2023-04-16T00:10:32.977Z,11.25
2023-04-16T00:15:35.043Z,11.85
2023-04-16T00:20:37.169Z,10.65
2023-04-16T00:30:41.402Z,12.50
2023-04-16T00:35:46.782Z,16.23
2023-04-16T00:40:49.122Z,11.10
2023-04-16T00:45:52.863Z,10.82
2023-04-16T00:50:55.657Z,9.98
2023-04-16T00:55:58.097Z,10.30
2023-04-16T01:01:00.652Z,12.70
2023-04-16T01:06:03.146Z,10.98
2023-04-16T01:11:06.232Z,7.32
2023-04-16T01:16:10.823Z,12.38
2023-04-16T01:21:13.217Z,9.30
2023-04-16T01:26:15.622Z,8.68
2023-04-16T01:31:17.750Z,13.85
2023-04-16T01:36:35.568Z,12.95
2023-04-16T01:41:37.718Z,13.07
2023-04-16T01:46:40.031Z,8.00
2023-04-16T01:51:42.324Z,9.50
2023-04-16T01:56:45.605Z,11.73
2023-04-16T02:01:47.779Z,9.98
2023-04-16T02:06:50.126Z,9.50
2023-04-16T02:11:52.179Z,7.85
2023-04-16T02:16:54.486Z,9.45
2023-04-16T02:22:10.665Z,10.30
2023-04-16T02:27:12.777Z,8.63
2023-04-16T02:32:18.524Z,9.55
2023-04-16T02:37:22.143Z,14.15
2023-04-16T02:42:25.169Z,10.50
2023-04-16T02:47:27.413Z,13.15
2023-04-16T02:52:29.618Z,12.55
2023-04-16T02:57:31.801Z,15.45
2023-04-16T03:02:34.078Z,12.80
2023-04-16T03:07:36.365Z,11.18
2023-04-16T03:12:39.313Z,13.90
2023-04-16T03:17:42.306Z,12.75
2023-04-16T03:22:44.941Z,15.18
2023-04-16T03:27:48.257Z,14.75
2023-04-16T03:32:52.143Z,6.93
2023-04-16T03:37:54.469Z,14.00
2023-04-16T03:42:56.736Z,11.85
2023-04-16T03:47:58.990Z,11.88
2023-04-16T03:53:01.704Z,11.65
2023-04-16T03:58:05.069Z,9.25
2023-04-16T04:03:08.467Z,13.85
2023-04-16T04:08:11.257Z,8.32
2023-04-16T04:13:13.642Z,8.88
2023-04-16T04:18:16.568Z,7.80
2023-04-16T04:23:19.382Z,9.25
2023-04-16T04:28:22.516Z,12.88
2023-04-16T04:33:25.706Z,8.43
2023-04-16T04:38:27.960Z,10.32
2023-04-16T04:43:30.189Z,9.02
2023-04-16T04:48:32.320Z,9.65
2023-04-16T04:53:35.051Z,8.98
2023-04-16T04:58:37.267Z,10.70
2023-04-16T05:03:39.716Z,10.65
2023-04-16T05:08:41.898Z,8.60
2023-04-16T05:18:46.123Z,7.00
2023-04-16T05:23:48.381Z,6.38
2023-04-16T05:28:50.587Z,7.43
2023-04-16T05:33:52.789Z,10.88
2023-04-16T05:38:55.074Z,8.82
2023-04-16T05:48:59.531Z,9.25
2023-04-16T05:54:01.879Z,9.65
2023-04-16T06:04:06.314Z,6.50
2023-04-16T06:09:08.902Z,7.75
2023-04-16T06:14:11.328Z,9.88
2023-04-16T06:19:13.412Z,10.05
2023-04-16T06:24:15.639Z,8.30
2023-04-16T06:29:17.780Z,10.20
2023-04-16T06:34:19.950Z,8.43
2023-04-16T06:39:22.086Z,7.32
2023-04-16T06:44:24.282Z,6.32
2023-04-16T06:49:26.434Z,6.32
2023-04-16T06:54:28.647Z,4.53
2023-04-16T06:59:30.996Z,6.57
2023-04-16T07:04:33.069Z,8.43
2023-04-16T07:09:35.409Z,7.28
2023-04-16T07:14:37.606Z,6.20
2023-04-16T07:19:39.684Z,7.35
2023-04-16T07:24:41.935Z,9.05
2023-04-16T07:29:45.765Z,6.97
2023-04-16T07:34:48.018Z,7.53
2023-04-16T07:39:50.129Z,17.83
2023-04-16T07:44:52.287Z,8.23
2023-04-16T07:49:54.436Z,7.22
2023-04-16T07:54:56.623Z,10.30
2023-04-16T07:59:58.852Z,6.63
2023-04-16T08:05:01.083Z,7.20
2023-04-16T08:10:03.390Z,7.32
2023-04-16T08:15:08.482Z,6.22
2023-04-16T08:20:13.024Z,7.57
2023-04-16T08:25:17.254Z,9.10
2023-04-16T08:30:19.686Z,5.68
2023-04-16T08:35:21.900Z,9.77
2023-04-16T08:40:28.769Z,8.07
2023-04-16T08:45:35.141Z,5.63
2023-04-16T08:50:37.666Z,7.60
2023-04-16T08:55:43.722Z,6.20
2023-04-16T09:00:46.503Z,8.82
2023-04-16T09:05:49.749Z,3.72
2023-04-16T09:10:52.034Z,5.40
2023-04-16T09:15:54.751Z,5.82
2023-04-16T09:20:57.331Z,6.97
2023-04-16T09:25:59.890Z,7.45
2023-04-16T09:31:09.378Z,4.85
2023-04-16T09:36:11.705Z,4.43
2023-04-16T09:41:16.410Z,5.88
2023-04-16T09:46:18.670Z,6.07
2023-04-16T09:51:20.952Z,6.78
2023-04-16T09:56:30.446Z,4.07
2023-04-16T10:01:32.954Z,5.50
2023-04-16T10:06:35.086Z,5.45
2023-04-16T10:11:37.870Z,7.95
2023-04-16T10:16:41.254Z,10.57
2023-04-16T10:21:43.550Z,5.15
2023-04-16T10:26:47.014Z,9.15
2023-04-16T10:31:50.566Z,8.23
2023-04-16T10:36:54.705Z,8.95
2023-04-16T10:42:13.414Z,8.65
2023-04-16T10:47:15.770Z,7.57
2023-04-16T10:52:18.068Z,6.43
2023-04-16T10:57:20.758Z,6.30
2023-04-16T11:02:29.234Z,4.35
2023-04-16T11:07:35.328Z,6.90
2023-04-16T11:12:39.899Z,6.65
2023-04-16T11:17:48.416Z,6.53
2023-04-16T11:22:52.135Z,5.72
2023-04-16T11:27:54.903Z,5.50
2023-04-16T11:32:57.335Z,5.55
2023-04-16T11:37:59.733Z,6.22
2023-04-16T11:43:04.064Z,4.32
2023-04-16T11:48:07.314Z,7.10
2023-04-16T11:53:10.393Z,7.38
2023-04-16T11:58:16.612Z,6.75
2023-04-16T12:03:37.657Z,6.72
2023-04-16T12:08:40.078Z,6.37
2023-04-16T12:13:42.194Z,6.15
2023-04-16T12:19:01.408Z,11.00
2023-04-16T12:24:03.852Z,6.35
2023-04-16T12:29:26.021Z,7.80
2023-04-16T12:34:46.587Z,6.88
2023-04-16T12:39:50.188Z,5.93
2023-04-16T12:44:52.305Z,7.43
2023-04-16T12:49:54.348Z,8.43
2023-04-16T12:54:56.531Z,6.05
2023-04-16T12:59:59.006Z,7.35
2023-04-16T13:05:01.651Z,8.40
2023-04-16T13:10:06.651Z,7.78
2023-04-16T13:15:09.606Z,6.03
2023-04-16T13:20:11.956Z,5.75
2023-04-16T13:25:14.203Z,4.13
2023-04-16T13:30:16.491Z,8.02
2023-04-16T13:35:18.761Z,5.03
2023-04-16T13:40:21.148Z,7.28
2023-04-16T13:45:23.387Z,12.27
2023-04-16T13:50:25.591Z,6.88
2023-04-16T13:55:27.961Z,8.30
2023-04-16T14:00:30.192Z,8.13
2023-04-16T14:05:32.372Z,7.38
2023-04-16T14:10:35.257Z,8.55
2023-04-16T14:15:37.399Z,6.88
2023-04-16T14:20:40.131Z,6.82
2023-04-16T14:25:42.221Z,8.20
2023-04-16T14:30:44.438Z,4.25
2023-04-16T14:35:46.718Z,6.10
2023-04-16T14:40:49.114Z,8.15
2023-04-16T14:45:51.319Z,6.93
2023-04-16T14:50:54.032Z,5.72
2023-04-16T14:55:59.094Z,8.68
2023-04-16T15:01:01.371Z,7.47
2023-04-16T15:06:03.634Z,8.68
2023-04-16T15:11:05.894Z,7.07
2023-04-16T15:16:08.103Z,19.25
2023-04-16T15:21:12.400Z,9.35
2023-04-16T15:26:15.009Z,8.35
2023-04-16T15:31:17.152Z,8.63
2023-04-16T15:36:20.010Z,6.18
2023-04-16T15:41:22.574Z,8.00
2023-04-16T15:46:24.770Z,5.00
2023-04-16T15:51:29.420Z,11.18
2023-04-16T15:56:31.734Z,5.53
2023-04-16T16:01:33.960Z,9.18
2023-04-16T16:06:41.892Z,5.18
2023-04-16T16:11:44.052Z,5.82
2023-04-16T16:16:46.271Z,5.30
2023-04-16T16:21:48.424Z,6.20
2023-04-16T16:26:50.761Z,9.30
2023-04-16T16:31:53.032Z,4.25
2023-04-16T16:36:55.180Z,7.53
2023-04-16T16:41:57.613Z,6.30
2023-04-16T16:46:59.925Z,8.20
2023-04-16T16:52:02.177Z,5.35
2023-04-16T16:57:04.286Z,8.57
2023-04-16T17:07:08.842Z,8.40
2023-04-16T17:12:11.274Z,11.50
2023-04-16T17:17:13.376Z,8.00
2023-04-16T17:27:18.139Z,13.02
2023-04-16T17:32:20.472Z,9.55
2023-04-16T17:37:23.642Z,10.35
2023-04-16T17:42:25.869Z,19.63
2023-04-16T17:47:28.151Z,15.02
2023-04-16T17:52:30.665Z,13.57
2023-04-16T17:57:32.921Z,11.50
2023-04-16T18:02:35.315Z,20.05
2023-04-16T18:07:39.098Z,14.70
2023-04-16T18:12:41.256Z,14.32
2023-04-16T18:17:43.554Z,12.18
2023-04-16T18:22:46.341Z,14.70
2023-04-16T18:27:48.403Z,11.63
2023-04-16T18:38:13.741Z,8.20
2023-04-16T18:43:16.310Z,10.27
2023-04-16T18:48:18.386Z,15.30
2023-04-16T18:58:23.454Z,14.48
2023-04-16T19:08:29.556Z,14.43
2023-04-16T19:18:34.486Z,15.05
2023-04-16T19:28:38.932Z,16.35
2023-04-16T19:33:41.713Z,16.63
2023-04-16T19:38:43.921Z,16.45
2023-04-16T19:43:46.213Z,14.20
2023-04-16T19:48:48.399Z,12.90
2023-04-16T19:53:50.660Z,18.00
2023-04-16T19:58:52.901Z,16.13
2023-04-16T20:08:57.458Z,13.70
2023-04-16T20:14:01.030Z,17.27
2023-04-16T20:19:08.578Z,18.42
2023-04-16T20:24:11.222Z,14.30
2023-04-16T20:29:13.397Z,16.60
2023-04-16T20:34:15.714Z,15.02
2023-04-16T20:39:20.497Z,14.95
2023-04-16T20:44:33.273Z,19.13
2023-04-16T20:49:35.836Z,20.25
2023-04-16T20:54:38.005Z,16.65
2023-04-16T20:59:40.188Z,18.45
2023-04-16T21:04:42.535Z,20.60
2023-04-16T21:09:44.884Z,15.10
2023-04-16T21:19:49.376Z,18.73
2023-04-16T21:24:51.585Z,13.70
2023-04-16T21:34:55.869Z,17.75
2023-04-16T21:39:58.083Z,12.63
2023-04-16T21:50:02.184Z,17.67
2023-04-16T21:55:08.891Z,12.80
2023-04-16T22:00:13.980Z,14.55
2023-04-16T22:05:16.388Z,14.88
2023-04-16T22:10:19.001Z,18.30
2023-04-16T22:15:22.687Z,15.57
2023-04-16T22:20:24.980Z,18.63
2023-04-16T22:30:29.104Z,14.45
2023-04-16T22:35:31.526Z,12.70
2023-04-16T22:40:33.786Z,14.70
2023-04-16T22:45:37.519Z,17.33
2023-04-16T22:50:40.698Z,14.45
2023-04-16T22:55:42.779Z,15.35
2023-04-16T23:05:47.027Z,15.90
2023-04-16T23:10:49.185Z,16.42
2023-04-16T23:15:51.550Z,17.00
2023-04-16T23:20:53.947Z,15.48
2023-04-16T23:25:56.129Z,12.32
2023-04-16T23:30:58.247Z,12.13
2023-04-16T23:41:02.610Z,13.10
2023-04-16T23:51:06.814Z,9.52
